Ana Sayfa
METAR-TAF:

METAR-TAF

Havaalanları :

Tulcán, Ekvador

Enlem: 00-48-34N, Boylam: 077-42-29W, yükseklik: 2941 m

Güncel hava durumu gözlemi

Rapor saat 21:00 UTC de 18 saat ve 10 dakika önce yapıldı.
Rüzgar doğu/güneydoğudan 2 kt
Sıcaklık 13°C
Nem 94%
Basınç 1030 hPa
Görüş mesafesi 10 km veya daha fazla
2000 ft yükseklikte çok bulutlu
Civarda sağanaklar

METAR: SETU 212100Z 12002KT 9999 VCSH OVC020 13/12 Q1030

Saat: 10:10 (15:10 UTC)


TAF: eksik

4.000'den fazla havaalanı için hava durumu gözlemleri ve tahminleri (METAR ve TAF raporları).

Kullanılabilir istasyonlar harita üzerinde sarı ve kırmızı noktalarla gösterilir.

İstasyonun adını görmek için fareyi noktanın üzerinde gezdirin.

Sonrasında hava gözlem ve tahminlerini görmek için tıklayın.

Haritayı değiştirmek için: yaklaştırmak için siyah artı işaretli yeşil düğmeye ve uzaklaştırmak için de eksi işaretli düğmeye hızla tıklayın; bitişik haritalar için yeşil okları kullanın.


METAR-TAF: